YSI weather

Parry Sound/Frying Pan Island-Sans Souci Seaplane Base
Frying Pan Island, Ontario, Canada

Public forecast

Using degrees Celsius for public forecast. Weather courtesy of forecast.io.

Closest aviation weather report (METAR) to Parry Sound/Frying Pan Island-Sans Souci Seaplane Base

Closest report is Muskoka Airport, 37.3 nm (69.1 km) ESE. Retrieved 2019/12/15 12:30 UTC (19 minutes ago):

CYQA 151230Z AUTO 30010KT 9SM -SN BKN012 OVC019 M08/M10 A2964 RMK SLP053

Closest aviation forecast (TAF) to Parry Sound/Frying Pan Island-Sans Souci Seaplane Base

Closest forecast is Muskoka Airport, 37.3 nm (69.1 km) ESE. Retrieved 2019/12/15 13:39 UTC (0 seconds ago):

TAF CYQA 151238Z 1513/1601 30012G22KT 6SM -SN OVC015 TEMPO 1513/1517 3SM -SHSN OVC007 FM151700 29010G20KT P6SM SCT030 TEMPO 1517/1601 P6SM -SHSN BKN020 RMK FCST BASED ON AUTO OBS NXT FCST BY 152000Z